This is the latest recevied weather packets stored in our database for station/object N8QQQ. If no packets are shown the sender has not sent any weather packets the latest 10 day(s).
| Time | Temp. | Humidity | Pressure | Rain* | Wind** | Luminosity | Snow |
|---|---|---|---|---|---|---|---|
| 1777833597 | 18.33° C | 39% | 1001.1 hPa | 0 mm | - | 456 W/m² | - |
| 1777833294 | 17.22° C | 39% | 1001.3 hPa | 0 mm | - | 222 W/m² | - |
| 1777832990 | 18.33° C | 39% | 1001.4 hPa | 0 mm | - | 208 W/m² | - |
| 1777832690 | 18.33° C | 38% | 1001.3 hPa | 0 mm | - | 158 W/m² | - |
| 1777832387 | 17.22° C | 40% | 1001.1 hPa | 0 mm | - | 152 W/m² | - |
| 1777832084 | 16.67° C | 42% | 1001.4 hPa | 0 mm | - | 148 W/m² | - |
| 1777831779 | 16.67° C | 42% | 1001.5 hPa | 0 mm | - | 66 W/m² | - |
| 1777831478 | 17.22° C | 43% | 1001.4 hPa | 0 mm | - | 90 W/m² | - |
| 1777831174 | 17.78° C | 41% | 1001.5 hPa | 0 mm | - | 153 W/m² | - |
| 1777830872 | 17.78° C | 40% | 1001.7 hPa | 0 mm | - | 163 W/m² | - |
| 1777830568 | 18.33° C | 40% | 1001.5 hPa | 0 mm | - | 207 W/m² | - |
| 1777830266 | 17.78° C | 41% | 1001.8 hPa | 0 mm | - | 192 W/m² | - |
| 1777829966 | 17.78° C | 41% | 1001.8 hPa | 0 mm | - | 340 W/m² | - |
| 1777829663 | 17.22° C | 43% | 1002.2 hPa | 0 mm | - | 249 W/m² | - |
| 1777829360 | 16.67° C | 45% | 1001.9 hPa | 0 mm | - | 590 W/m² | - |
| 1777829057 | 16.11° C | 44% | 1002.4 hPa | 0 mm | - | 72 W/m² | - |
| 1777828753 | 16.67° C | 45% | 1002.6 hPa | 0 mm | - | 416 W/m² | - |
| 1777828450 | 16.11° C | 47% | 1002.4 hPa | 0 mm | - | 206 W/m² | - |
| 1777828148 | 16.67° C | 45% | 1002.5 hPa | 0 mm | - | 98 W/m² | - |
| 1777827844 | 17.78° C | 42% | 1002.4 hPa | 0 mm | - | 125 W/m² | - |
| 1777827540 | 17.22° C | 43% | 1002.8 hPa | 0 mm | - | 675 W/m² | - |
| 1777827238 | 16.67° C | 46% | 1002.6 hPa | 0 mm | - | 164 W/m² | - |
| 1777826934 | 16.11° C | 46% | 1002.9 hPa | 0 mm | - | 613 W/m² | - |
| 1777826632 | 16.11° C | 47% | 1002.9 hPa | 0 mm | - | 723 W/m² | - |
| 1777826327 | 15.56° C | 47% | 1003.2 hPa | 0 mm | - | 739 W/m² | - |
* Rain latest hour (hover to see other rain measurements)
** Current wind speed in m/s (hover to see current wind gust speed)